Time;durP1;ratioP1;P1;durP2;ratioP2;P2;SDS_P1;SDS_P2;PMS_P1;PMS_P2;Temp;Humidity;BMP_temperature;BMP_pressure;BME280_temperature;BME280_humidity;BME280_pressure;Samples;Min_cycle;Max_cycle;Signal;HPM_P1;HPM_P2
2023/04/04 00:02:00;;;;;;;2.40;1.27;;;2.80;99.90;;;;;;4144767;28;20447;-70
2023/04/04 00:04:02;;;;;;;5.03;1.10;;;2.70;99.90;;;;;;4137782;28;20455;-70
2023/04/04 00:06:04;;;;;;;2.40;0.90;;;2.80;99.90;;;;;;4137698;28;20902;-70
2023/04/04 00:08:07;;;;;;;2.73;1.10;;;2.70;99.90;;;;;;4142393;28;20550;-71
2023/04/04 00:10:10;;;;;;;2.97;1.20;;;2.90;99.90;;;;;;4138577;28;21017;-71
2023/04/04 00:12:12;;;;;;;2.27;0.97;;;2.70;99.90;;;;;;4138432;28;20529;-71
2023/04/04 00:14:14;;;;;;;4.70;1.50;;;2.80;99.90;;;;;;4138123;28;21004;-70
2023/04/04 00:16:16;;;;;;;3.00;1.10;;;2.70;99.90;;;;;;4139634;28;20479;-71
2023/04/04 00:18:19;;;;;;;1.40;1.00;;;2.70;99.90;;;;;;4137480;28;20527;-70
2023/04/04 00:20:21;;;;;;;3.03;1.13;;;2.70;99.90;;;;;;4139261;28;20455;-70
2023/04/04 00:22:23;;;;;;;3.83;1.20;;;2.70;99.90;;;;;;4140297;28;20444;-70
2023/04/04 00:24:25;;;;;;;1.30;1.00;;;2.70;99.90;;;;;;4119202;28;20456;-70
2023/04/04 00:26:27;;;;;;;2.50;1.10;;;2.70;99.90;;;;;;4142628;28;20457;-69
2023/04/04 00:28:30;;;;;;;2.60;1.10;;;3.30;99.90;;;;;;4127457;28;20439;-71
2023/04/04 00:30:32;;;;;;;2.47;1.20;;;2.60;99.90;;;;;;4140496;28;21023;-69
2023/04/04 00:32:33;;;;;;;1.63;1.00;;;2.70;99.90;;;;;;4137461;28;20486;-70
2023/04/04 00:34:37;;;;;;;5.60;1.80;;;2.60;99.90;;;;;;4141495;28;20565;-69
2023/04/04 00:36:39;;;;;;;2.40;1.20;;;2.60;99.90;;;;;;4134460;28;20487;-71
2023/04/04 00:38:40;;;;;;;2.80;1.00;;;2.60;99.90;;;;;;4156288;28;20466;-70
2023/04/04 00:40:47;;;;;;;2.63;1.00;;;2.60;99.90;;;;;;4139887;28;20459;-70
2023/04/04 00:42:49;;;;;;;3.63;1.23;;;2.60;99.90;;;;;;4135612;28;20580;-70
2023/04/04 00:44:52;;;;;;;3.13;1.00;;;2.60;99.90;;;;;;4134357;28;20494;-71
2023/04/04 00:46:53;;;;;;;3.97;1.20;;;2.60;99.90;;;;;;4133254;28;20556;-70
2023/04/04 00:48:56;;;;;;;4.10;1.47;;;2.50;99.90;;;;;;4141046;28;20572;-70
2023/04/04 00:50:59;;;;;;;2.73;1.20;;;2.50;99.90;;;;;;4139456;28;20586;-70
2023/04/04 00:53:01;;;;;;;3.03;1.07;;;2.50;99.90;;;;;;4138360;28;20462;-70
2023/04/04 00:55:04;;;;;;;4.50;1.00;;;2.50;99.90;;;;;;4141518;28;21018;-70
2023/04/04 00:57:07;;;;;;;2.40;1.17;;;2.50;99.90;;;;;;4140834;28;20546;-71
2023/04/04 00:59:09;;;;;;;3.13;1.07;;;2.50;99.90;;;;;;4134047;28;20478;-70
2023/04/04 01:01:12;;;;;;;2.00;0.97;;;2.50;99.90;;;;;;4137045;28;20998;-70
2023/04/04 01:03:14;;;;;;;3.03;0.90;;;2.50;99.90;;;;;;4142545;28;20467;-70
2023/04/04 01:05:16;;;;;;;2.80;1.00;;;2.50;99.90;;;;;;4138744;28;20903;-70
2023/04/04 01:07:19;;;;;;;3.70;1.00;;;2.40;99.90;;;;;;4144562;28;20884;-70
2023/04/04 01:09:25;;;;;;;3.13;1.37;;;2.40;99.90;;;;;;4143599;28;20553;-70
2023/04/04 01:11:27;;;;;;;2.47;0.90;;;2.40;99.90;;;;;;4139709;28;20546;-71
2023/04/04 01:13:30;;;;;;;2.53;1.00;;;2.40;99.90;;;;;;4139260;28;20475;-71
2023/04/04 01:15:32;;;;;;;3.47;1.13;;;2.40;99.90;;;;;;4138908;28;20985;-70
2023/04/04 01:17:34;;;;;;;3.30;1.10;;;2.40;99.90;;;;;;4139179;28;20520;-70
2023/04/04 01:19:44;;;;;;;2.83;1.20;;;2.40;99.90;;;;;;4145521;28;20487;-70
2023/04/04 01:21:48;;;;;;;3.83;1.30;;;2.40;99.90;;;;;;4143926;28;21036;-70
2023/04/04 01:24:00;;;;;;;3.33;1.20;;;2.30;99.90;;;;;;4139180;28;20476;-70
2023/04/04 01:26:04;;;;;;;3.37;1.30;;;2.30;99.90;;;;;;4141337;28;20479;-70
2023/04/04 01:28:07;;;;;;;2.57;1.20;;;2.40;99.90;;;;;;4142751;28;20501;-70
2023/04/04 01:30:10;;;;;;;5.40;1.30;;;2.30;99.90;;;;;;4137564;28;20454;-70
2023/04/04 01:32:16;;;;;;;1.57;1.03;;;2.30;99.90;;;;;;4145260;28;20494;-71
2023/04/04 01:34:23;;;;;;;4.27;1.40;;;2.30;99.90;;;;;;4139142;28;20466;-72
2023/04/04 01:36:31;;;;;;;4.30;1.30;;;2.30;99.90;;;;;;4137515;28;20549;-70
2023/04/04 01:38:47;;;;;;;3.73;1.20;;;2.20;99.90;;;;;;4139487;28;20470;-70
2023/04/04 01:40:52;;;;;;;3.10;1.30;;;2.20;99.90;;;;;;4142195;28;20550;-70
2023/04/04 01:42:56;;;;;;;3.50;1.17;;;2.20;99.90;;;;;;4141080;28;20460;-71
2023/04/04 01:44:58;;;;;;;3.37;1.10;;;2.30;99.90;;;;;;4136067;28;20490;-70
2023/04/04 01:47:00;;;;;;;2.63;1.20;;;2.20;99.90;;;;;;4143305;28;20578;-71
2023/04/04 01:49:02;;;;;;;1.50;1.03;;;2.20;99.90;;;;;;4142611;28;20471;-70
2023/04/04 01:51:05;;;;;;;4.13;1.40;;;2.20;99.90;;;;;;4143001;28;20467;-70
2023/04/04 01:53:06;;;;;;;2.23;1.20;;;2.10;99.90;;;;;;4138058;28;20836;-70
2023/04/04 01:55:09;;;;;;;3.07;1.10;;;2.20;99.90;;;;;;4132891;28;20483;-70
2023/04/04 01:57:11;;;;;;;2.20;1.10;;;2.20;99.90;;;;;;4144069;28;20481;-69
2023/04/04 01:59:15;;;;;;;2.00;1.00;;;2.10;99.90;;;;;;4142353;28;21054;-69
2023/04/04 02:01:16;;;;;;;2.23;1.43;;;2.10;99.90;;;;;;4138211;28;20549;-70
2023/04/04 02:03:18;;;;;;;3.67;1.30;;;2.10;99.90;;;;;;4139148;28;20467;-71
2023/04/04 02:05:21;;;;;;;1.37;1.00;;;2.10;99.90;;;;;;4150715;28;20568;-70
2023/04/04 02:07:23;;;;;;;2.37;0.87;;;2.10;99.90;;;;;;4150391;28;21549;-70
2023/04/04 02:09:25;;;;;;;3.23;1.20;;;2.10;99.90;;;;;;4151058;28;20586;-71
2023/04/04 02:11:26;;;;;;;4.47;1.30;;;2.10;99.90;;;;;;4149073;28;20490;-70
2023/04/04 02:13:28;;;;;;;1.20;0.90;;;2.10;99.90;;;;;;4135841;28;20496;-69
2023/04/04 02:15:32;;;;;;;3.73;1.20;;;2.00;99.90;;;;;;4143875;28;21026;-70
2023/04/04 02:17:34;;;;;;;2.30;1.33;;;2.00;99.90;;;;;;4145246;28;20517;-70
2023/04/04 02:19:36;;;;;;;4.43;1.40;;;2.00;99.90;;;;;;4142456;28;20874;-70
2023/04/04 02:21:38;;;;;;;3.37;1.17;;;2.00;99.90;;;;;;4122201;28;20461;-70
2023/04/04 02:23:40;;;;;;;2.80;1.33;;;2.00;99.90;;;;;;4138792;28;20452;-70
2023/04/04 02:25:41;;;;;;;4.80;1.30;;;2.10;99.90;;;;;;4132526;28;20881;-70
2023/04/04 02:27:43;;;;;;;4.10;1.40;;;2.00;99.90;;;;;;4134490;28;20542;-70
2023/04/04 02:29:45;;;;;;;3.83;1.40;;;2.00;99.90;;;;;;4142999;28;20479;-71
2023/04/04 02:31:48;;;;;;;2.43;1.10;;;1.90;99.90;;;;;;4145316;28;20573;-69
2023/04/04 02:33:50;;;;;;;3.33;1.70;;;1.90;99.90;;;;;;4143465;28;20483;-70
2023/04/04 02:35:52;;;;;;;4.83;1.43;;;2.00;99.90;;;;;;4140910;28;20528;-70
2023/04/04 02:37:54;;;;;;;4.17;1.30;;;1.90;99.90;;;;;;4139860;28;20504;-70
2023/04/04 02:39:56;;;;;;;4.77;1.60;;;1.90;99.90;;;;;;4139940;28;20459;-70
2023/04/04 02:41:58;;;;;;;3.60;1.30;;;1.90;99.90;;;;;;4142287;28;20534;-70
2023/04/04 02:44:00;;;;;;;2.93;1.27;;;1.80;99.90;;;;;;4145687;28;20455;-70
2023/04/04 02:46:02;;;;;;;4.47;1.67;;;1.80;99.90;;;;;;4137617;28;20503;-71
2023/04/04 02:48:06;;;;;;;3.20;1.43;;;1.80;99.90;;;;;;4144975;28;20459;-69
2023/04/04 02:50:09;;;;;;;3.83;1.00;;;1.80;99.90;;;;;;4135977;28;20564;-70
2023/04/04 02:52:11;;;;;;;6.13;1.50;;;1.80;99.90;;;;;;4138223;28;20596;-70
2023/04/04 02:54:13;;;;;;;2.93;1.00;;;1.70;99.90;;;;;;4143987;28;20882;-70
2023/04/04 02:56:15;;;;;;;3.73;1.60;;;1.80;99.90;;;;;;4141841;28;20559;-71
2023/04/04 02:58:17;;;;;;;2.20;1.03;;;1.70;99.90;;;;;;4137672;28;20467;-70
2023/04/04 03:00:19;;;;;;;2.63;1.37;;;1.70;99.90;;;;;;4137470;28;20453;-70
2023/04/04 03:02:23;;;;;;;5.13;1.63;;;1.70;99.90;;;;;;4142532;28;20451;-70
2023/04/04 03:04:27;;;;;;;3.87;1.40;;;1.60;99.90;;;;;;4140457;28;20850;-71
2023/04/04 03:06:32;;;;;;;4.50;1.10;;;1.60;99.90;;;;;;4142705;28;20512;-70
2023/04/04 03:08:35;;;;;;;4.03;1.50;;;1.60;99.90;;;;;;4139793;28;20459;-70
2023/04/04 03:10:37;;;;;;;6.10;1.37;;;1.50;99.90;;;;;;4139665;28;21186;-70
2023/04/04 03:12:39;;;;;;;2.90;1.13;;;1.50;99.90;;;;;;4143597;28;20829;-69
2023/04/04 03:14:41;;;;;;;3.10;1.23;;;1.50;99.90;;;;;;4151985;28;20510;-69
2023/04/04 03:16:43;;;;;;;4.10;1.33;;;1.50;99.90;;;;;;4138884;28;20490;-70
2023/04/04 03:18:46;;;;;;;4.10;1.27;;;1.50;99.90;;;;;;4141997;28;20534;-70
2023/04/04 03:20:50;;;;;;;3.27;1.10;;;1.50;99.90;;;;;;4138101;28;20464;-71
2023/04/04 03:22:51;;;;;;;6.67;1.50;;;1.50;99.90;;;;;;4138344;28;20482;-70
2023/04/04 03:24:53;;;;;;;5.87;1.70;;;1.40;99.90;;;;;;4140057;28;20992;-71
2023/04/04 03:26:55;;;;;;;3.40;1.40;;;1.30;99.90;;;;;;4135494;28;21191;-69
2023/04/04 03:28:57;;;;;;;3.00;1.00;;;1.40;99.90;;;;;;4139552;28;20546;-70
2023/04/04 03:31:04;;;;;;;3.00;1.20;;;1.40;99.90;;;;;;4127405;28;20502;-70
2023/04/04 03:33:07;;;;;;;2.60;1.37;;;1.40;99.90;;;;;;4136732;28;20494;-71
2023/04/04 03:35:09;;;;;;;3.47;1.27;;;1.40;99.90;;;;;;4135340;28;20538;-71
2023/04/04 03:37:12;;;;;;;3.60;1.43;;;1.30;99.90;;;;;;4137889;28;20943;-71
2023/04/04 03:39:14;;;;;;;4.67;1.33;;;1.30;99.90;;;;;;4135247;28;20457;-71
2023/04/04 03:41:16;;;;;;;3.33;1.33;;;1.30;99.90;;;;;;4137291;28;20466;-71
2023/04/04 03:43:18;;;;;;;2.80;1.23;;;1.20;99.90;;;;;;4137417;28;21019;-71
2023/04/04 03:45:20;;;;;;;2.43;1.50;;;1.30;99.90;;;;;;4138396;28;21019;-72
2023/04/04 03:47:22;;;;;;;2.80;1.00;;;1.30;99.90;;;;;;4130337;28;20878;-71
2023/04/04 03:49:24;;;;;;;3.97;1.30;;;1.30;99.90;;;;;;4135471;28;20584;-72
2023/04/04 03:51:27;;;;;;;2.63;1.10;;;1.30;99.90;;;;;;4138199;28;20833;-72
2023/04/04 03:53:30;;;;;;;2.97;1.37;;;1.20;99.90;;;;;;4131525;28;20499;-71
2023/04/04 03:55:34;;;;;;;7.93;1.60;;;1.20;99.90;;;;;;4132862;28;20481;-72
2023/04/04 03:57:36;;;;;;;4.03;1.07;;;1.20;99.90;;;;;;4135041;28;20549;-72
2023/04/04 03:59:38;;;;;;;3.20;1.20;;;1.30;99.90;;;;;;4137892;28;20803;-72
2023/04/04 04:01:40;;;;;;;1.87;1.10;;;1.20;99.90;;;;;;4138072;28;20463;-71
2023/04/04 04:03:42;;;;;;;4.00;1.70;;;1.20;99.90;;;;;;4134999;28;20450;-70
2023/04/04 04:05:44;;;;;;;4.40;1.00;;;1.20;99.90;;;;;;4134418;28;20474;-72
2023/04/04 04:07:46;;;;;;;2.33;1.07;;;1.10;99.90;;;;;;4120036;28;20462;-72
2023/04/04 04:09:50;;;;;;;5.80;1.63;;;1.10;99.90;;;;;;4133151;28;20460;-71
2023/04/04 04:11:52;;;;;;;3.53;1.20;;;1.10;99.90;;;;;;4137438;28;20457;-71
2023/04/04 04:13:54;;;;;;;4.90;1.57;;;1.10;99.90;;;;;;4126683;28;20503;-71
2023/04/04 04:15:56;;;;;;;5.17;1.33;;;1.10;99.90;;;;;;4115972;28;20475;-71
2023/04/04 04:17:58;;;;;;;4.60;1.40;;;1.10;99.90;;;;;;4125137;28;20960;-70
2023/04/04 04:20:00;;;;;;;3.53;1.57;;;1.10;99.90;;;;;;4144290;28;20902;-71
2023/04/04 04:22:02;;;;;;;4.00;1.30;;;1.10;99.90;;;;;;4134445;28;20458;-70
2023/04/04 04:24:07;;;;;;;5.53;1.40;;;1.00;99.90;;;;;;4125312;28;20454;-71
2023/04/04 04:26:10;;;;;;;6.73;1.40;;;1.00;99.90;;;;;;4141538;28;20997;-70
2023/04/04 04:28:14;;;;;;;2.83;1.27;;;1.00;99.90;;;;;;4140263;28;20574;-70
2023/04/04 04:30:16;;;;;;;3.00;1.23;;;1.00;99.90;;;;;;4141527;28;20482;-71
2023/04/04 04:32:18;;;;;;;3.03;1.33;;;1.00;99.90;;;;;;4136213;28;20490;-70
2023/04/04 04:34:20;;;;;;;5.60;1.77;;;1.00;99.90;;;;;;4138115;28;20462;-71
2023/04/04 04:36:22;;;;;;;3.60;1.57;;;1.00;99.90;;;;;;4140056;28;20512;-71
2023/04/04 04:38:24;;;;;;;3.07;1.40;;;0.90;99.90;;;;;;4135478;28;20463;-71
2023/04/04 04:40:26;;;;;;;2.77;1.40;;;0.90;99.90;;;;;;4135983;28;20995;-71
2023/04/04 04:42:29;;;;;;;4.67;1.50;;;0.90;99.90;;;;;;4139786;28;20445;-71
2023/04/04 04:44:31;;;;;;;3.67;1.53;;;0.90;99.90;;;;;;4123065;28;20495;-71
2023/04/04 04:46:34;;;;;;;3.00;1.33;;;0.90;99.90;;;;;;4135329;28;20502;-71
2023/04/04 04:48:36;;;;;;;6.90;1.67;;;0.90;99.90;;;;;;4135324;28;20819;-71
2023/04/04 04:50:38;;;;;;;3.23;1.17;;;0.80;99.90;;;;;;4136407;28;20810;-70
2023/04/04 04:52:40;;;;;;;3.70;1.50;;;0.80;99.90;;;;;;4138930;28;20497;-71
2023/04/04 04:54:43;;;;;;;2.60;1.40;;;0.80;99.90;;;;;;4120637;28;20494;-71
2023/04/04 04:56:45;;;;;;;3.10;1.27;;;0.80;99.90;;;;;;4137083;28;20979;-71
2023/04/04 04:58:49;;;;;;;3.50;1.30;;;0.80;99.90;;;;;;4139217;28;21183;-71
2023/04/04 05:00:55;;;;;;;4.07;1.70;;;0.80;99.90;;;;;;4124037;28;21020;-71
2023/04/04 05:02:59;;;;;;;5.00;2.07;;;0.80;99.90;;;;;;4142795;28;20444;-71
2023/04/04 05:05:01;;;;;;;5.50;1.90;;;0.80;99.90;;;;;;4141168;28;20506;-71
2023/04/04 05:07:03;;;;;;;5.50;1.50;;;0.80;99.90;;;;;;4139677;28;20453;-71
2023/04/04 05:09:05;;;;;;;6.90;1.70;;;0.80;99.90;;;;;;4138232;28;20488;-71
2023/04/04 05:11:07;;;;;;;4.93;1.53;;;0.70;99.90;;;;;;4137486;28;20457;-70
2023/04/04 05:13:09;;;;;;;3.17;1.70;;;0.70;99.90;;;;;;4136480;28;20540;-71
2023/04/04 05:15:12;;;;;;;4.43;1.43;;;0.70;99.90;;;;;;4138468;28;21201;-70
2023/04/04 05:17:14;;;;;;;3.37;1.40;;;0.70;99.90;;;;;;4140874;28;20509;-71
2023/04/04 05:19:16;;;;;;;7.20;1.73;;;0.70;99.90;;;;;;4139141;28;20469;-71
2023/04/04 05:21:18;;;;;;;5.57;1.47;;;0.70;99.90;;;;;;4136282;28;21054;-71
2023/04/04 05:23:21;;;;;;;3.70;1.40;;;0.70;99.90;;;;;;4136527;28;20459;-71
2023/04/04 05:25:23;;;;;;;4.67;1.60;;;0.70;99.90;;;;;;4137180;28;20519;-71
2023/04/04 05:27:26;;;;;;;2.80;1.30;;;0.70;99.90;;;;;;4141929;28;20456;-70
2023/04/04 05:29:28;;;;;;;4.70;1.50;;;0.70;99.90;;;;;;4137842;28;20836;-70
2023/04/04 05:31:31;;;;;;;5.23;1.70;;;0.70;99.90;;;;;;4129580;28;21018;-70
2023/04/04 05:33:33;;;;;;;4.43;1.93;;;0.70;99.90;;;;;;4140170;28;20488;-71
2023/04/04 05:35:35;;;;;;;6.43;1.40;;;0.70;99.90;;;;;;4118244;28;20534;-71
2023/04/04 05:37:40;;;;;;;6.03;2.03;;;0.70;99.90;;;;;;4120217;28;20510;-71
2023/04/04 05:39:41;;;;;;;8.70;2.70;;;0.70;99.90;;;;;;4131641;28;20462;-71
2023/04/04 05:41:43;;;;;;;7.60;2.33;;;0.70;99.90;;;;;;4140380;28;20860;-71
2023/04/04 05:43:46;;;;;;;6.53;2.10;;;0.70;99.90;;;;;;4138740;28;20452;-70
2023/04/04 05:45:48;;;;;;;6.70;1.67;;;0.70;99.90;;;;;;4128111;28;20542;-71
2023/04/04 05:47:51;;;;;;;5.60;2.00;;;0.70;99.90;;;;;;4121348;28;20492;-70
2023/04/04 05:49:53;;;;;;;6.00;1.63;;;0.70;99.90;;;;;;4135380;28;21080;-71
2023/04/04 05:51:56;;;;;;;3.60;1.33;;;0.80;99.90;;;;;;4136204;28;20473;-71
2023/04/04 05:53:58;;;;;;;4.80;1.43;;;0.80;99.90;;;;;;4137001;28;20477;-71
2023/04/04 05:56:00;;;;;;;6.67;1.77;;;0.80;99.90;;;;;;4120542;28;20529;-71
2023/04/04 05:58:02;;;;;;;5.87;2.43;;;0.80;99.90;;;;;;4136428;28;20528;-71
2023/04/04 06:00:04;;;;;;;7.17;1.97;;;0.80;99.90;;;;;;4128754;28;20463;-71
2023/04/04 06:02:07;;;;;;;5.20;1.60;;;0.80;99.90;;;;;;4139217;28;20453;-71
2023/04/04 06:04:11;;;;;;;3.73;1.60;;;0.90;99.90;;;;;;4135648;28;20487;-70
2023/04/04 06:06:13;;;;;;;6.43;1.57;;;0.90;99.90;;;;;;4135065;28;20482;-71
2023/04/04 06:08:15;;;;;;;3.13;1.30;;;0.90;99.90;;;;;;4128843;28;20475;-71
2023/04/04 06:10:17;;;;;;;5.03;1.40;;;0.70;99.90;;;;;;4136475;28;20632;-70
2023/04/04 06:12:19;;;;;;;5.10;1.60;;;0.90;99.90;;;;;;4128616;28;20523;-70
2023/04/04 06:14:21;;;;;;;4.73;1.43;;;0.90;99.90;;;;;;4138224;28;21296;-71
2023/04/04 06:16:23;;;;;;;4.33;1.73;;;0.90;99.90;;;;;;4140816;28;20462;-71
2023/04/04 06:18:25;;;;;;;2.97;1.60;;;0.90;99.90;;;;;;4137101;28;20465;-70
2023/04/04 06:20:28;;;;;;;3.47;1.33;;;0.90;99.90;;;;;;4138001;28;20509;-71
2023/04/04 06:22:30;;;;;;;3.03;1.40;;;0.90;99.90;;;;;;4136611;28;20465;-71
2023/04/04 06:24:32;;;;;;;3.13;1.80;;;0.90;99.90;;;;;;4134362;28;20553;-71
2023/04/04 06:26:34;;;;;;;4.47;1.90;;;0.90;99.90;;;;;;4124395;28;20489;-70
2023/04/04 06:28:36;;;;;;;5.23;1.70;;;0.90;99.90;;;;;;4139006;28;20564;-70
2023/04/04 06:30:38;;;;;;;5.20;2.37;;;1.00;99.90;;;;;;4135404;28;20454;-71
2023/04/04 06:32:40;;;;;;;9.60;3.17;;;0.90;99.90;;;;;;4136498;28;20454;-71
2023/04/04 06:34:42;;;;;;;10.40;3.30;;;1.00;99.90;;;;;;4137556;28;20549;-70
2023/04/04 06:36:45;;;;;;;10.00;3.80;;;1.00;99.90;;;;;;4126954;28;20551;-71
2023/04/04 06:38:47;;;;;;;10.50;4.20;;;1.00;99.90;;;;;;4138874;28;20481;-71
2023/04/04 06:40:49;;;;;;;8.37;3.60;;;1.00;99.90;;;;;;4135786;28;20458;-71
2023/04/04 06:42:53;;;;;;;9.80;3.50;;;1.00;99.90;;;;;;4135928;28;20454;-71
2023/04/04 06:44:55;;;;;;;4.13;2.83;;;1.00;99.90;;;;;;4135564;28;21101;-71
2023/04/04 06:46:57;;;;;;;5.17;2.80;;;1.10;99.90;;;;;;4137229;28;20460;-71
2023/04/04 06:48:59;;;;;;;5.77;2.20;;;1.20;99.90;;;;;;4139308;28;20460;-71
2023/04/04 06:51:04;;;;;;;6.17;2.27;;;1.20;99.90;;;;;;4137916;28;20523;-71
2023/04/04 06:53:11;;;;;;;6.80;3.03;;;1.20;99.90;;;;;;4137212;28;20504;-71
2023/04/04 06:55:13;;;;;;;4.17;1.90;;;1.20;99.90;;;;;;4137775;28;20486;-71
2023/04/04 06:57:15;;;;;;;6.37;2.20;;;1.30;99.90;;;;;;4137098;28;20478;-71
2023/04/04 06:59:17;;;;;;;4.13;2.17;;;1.30;99.90;;;;;;4134894;28;20463;-71
2023/04/04 07:01:19;;;;;;;3.20;1.70;;;1.30;99.90;;;;;;4140823;28;20495;-71
2023/04/04 07:03:22;;;;;;;4.70;1.87;;;1.40;99.90;;;;;;4137778;28;20483;-71
2023/04/04 07:05:24;;;;;;;7.53;2.03;;;1.50;99.90;;;;;;4135771;28;21144;-71
2023/04/04 07:07:26;;;;;;;5.77;1.73;;;1.50;99.90;;;;;;4135049;28;20974;-71
2023/04/04 07:09:29;;;;;;;5.97;1.73;;;1.50;99.90;;;;;;4135401;28;20459;-71
2023/04/04 07:11:32;;;;;;;3.70;1.70;;;1.60;99.90;;;;;;4138554;28;20472;-71
2023/04/04 07:13:35;;;;;;;3.53;1.40;;;1.60;99.90;;;;;;4134332;28;20573;-71
2023/04/04 07:15:37;;;;;;;5.70;1.80;;;1.60;99.90;;;;;;4136119;28;20482;-71
2023/04/04 07:17:39;;;;;;;5.10;1.70;;;1.70;99.90;;;;;;4133357;28;20544;-71
2023/04/04 07:19:41;;;;;;;4.13;1.90;;;1.70;99.90;;;;;;4136317;28;20461;-71
2023/04/04 07:21:43;;;;;;;3.73;1.60;;;1.80;99.90;;;;;;4134938;28;20491;-71
2023/04/04 07:23:45;;;;;;;5.93;1.87;;;1.80;99.90;;;;;;4139178;28;20893;-70
2023/04/04 07:25:49;;;;;;;6.93;1.80;;;1.80;99.90;;;;;;4135209;28;20482;-71
2023/04/04 07:27:52;;;;;;;3.80;1.57;;;1.90;99.90;;;;;;4136670;28;20565;-71
2023/04/04 07:29:54;;;;;;;4.27;1.87;;;1.90;99.90;;;;;;4135683;28;20986;-71
2023/04/04 07:31:56;;;;;;;5.00;2.13;;;1.90;99.90;;;;;;4134527;28;20467;-71
2023/04/04 07:33:58;;;;;;;5.60;1.73;;;2.00;99.90;;;;;;4134528;28;20525;-71
2023/04/04 07:36:01;;;;;;;4.90;1.60;;;2.00;99.90;;;;;;4128721;28;20510;-71
2023/04/04 07:38:04;;;;;;;5.10;1.90;;;2.00;99.90;;;;;;4135765;28;20460;-71
2023/04/04 07:40:08;;;;;;;6.47;1.70;;;2.00;99.90;;;;;;4138048;28;21202;-70
2023/04/04 07:42:11;;;;;;;5.13;1.60;;;2.00;99.90;;;;;;4137789;28;20458;-71
2023/04/04 07:44:13;;;;;;;4.73;1.80;;;2.00;99.90;;;;;;4137331;28;20448;-71
2023/04/04 07:46:15;;;;;;;4.93;1.70;;;2.00;99.90;;;;;;4135838;28;20918;-70
2023/04/04 07:48:17;;;;;;;3.73;1.83;;;2.00;99.90;;;;;;4135471;28;20956;-70
2023/04/04 07:50:19;;;;;;;6.70;1.90;;;2.00;99.90;;;;;;4137675;28;20538;-71
2023/04/04 07:52:21;;;;;;;8.60;3.03;;;2.00;99.90;;;;;;4127797;28;20541;-71
2023/04/04 07:54:23;;;;;;;3.27;1.50;;;2.00;99.90;;;;;;4137485;28;20578;-71
2023/04/04 07:56:25;;;;;;;5.03;1.87;;;2.00;99.90;;;;;;4135604;28;20993;-71
2023/04/04 07:58:29;;;;;;;4.10;1.60;;;2.10;99.90;;;;;;4134117;28;20466;-71
2023/04/04 08:00:31;;;;;;;6.07;1.70;;;2.10;99.90;;;;;;4121820;28;21037;-71
2023/04/04 08:02:33;;;;;;;3.60;1.63;;;2.10;99.90;;;;;;4132450;28;20553;-71
2023/04/04 08:04:34;;;;;;;4.53;1.60;;;2.10;99.90;;;;;;4138347;28;20894;-71
2023/04/04 08:06:38;;;;;;;4.50;1.53;;;2.30;99.90;;;;;;4137146;28;21020;-71
2023/04/04 08:08:41;;;;;;;4.17;1.80;;;2.10;99.90;;;;;;4134668;28;20458;-70
2023/04/04 08:10:44;;;;;;;3.90;1.87;;;2.10;99.90;;;;;;4137968;28;20509;-71
2023/04/04 08:12:46;;;;;;;8.57;1.53;;;2.10;99.90;;;;;;4135622;28;20485;-71
2023/04/04 08:14:52;;;;;;;4.07;1.60;;;2.10;99.90;;;;;;4136126;28;20501;-70
2023/04/04 08:16:54;;;;;;;3.27;1.77;;;2.20;99.90;;;;;;4136654;28;20458;-71
2023/04/04 08:18:56;;;;;;;6.23;2.40;;;2.20;99.90;;;;;;4138970;28;20461;-71
2023/04/04 08:20:58;;;;;;;6.53;2.53;;;2.20;99.90;;;;;;4137406;28;20901;-71
2023/04/04 08:23:00;;;;;;;8.77;3.00;;;2.20;99.90;;;;;;4137565;28;21180;-72
2023/04/04 08:25:02;;;;;;;9.10;2.63;;;2.30;99.90;;;;;;4135758;28;20589;-72
2023/04/04 08:27:04;;;;;;;5.43;1.90;;;2.30;99.90;;;;;;4135062;28;20537;-73
2023/04/04 08:29:06;;;;;;;6.13;1.90;;;2.30;99.90;;;;;;4136030;28;20933;-71
2023/04/04 08:31:11;;;;;;;6.73;2.00;;;2.30;99.90;;;;;;4135226;28;20463;-72
2023/04/04 08:33:13;;;;;;;5.60;1.77;;;2.40;99.90;;;;;;4135774;28;20440;-71
2023/04/04 08:35:15;;;;;;;5.83;1.70;;;2.40;99.90;;;;;;4134404;28;20486;-72
2023/04/04 08:37:17;;;;;;;4.07;1.63;;;2.40;99.90;;;;;;4139017;28;20450;-72
2023/04/04 08:39:19;;;;;;;4.50;1.83;;;2.50;99.90;;;;;;4134001;28;20547;-71
2023/04/04 08:41:21;;;;;;;5.37;1.70;;;2.50;99.90;;;;;;4136721;28;20490;-72
2023/04/04 08:43:24;;;;;;;7.17;1.60;;;2.60;99.90;;;;;;4137382;28;20458;-70
2023/04/04 08:45:29;;;;;;;6.40;2.03;;;2.60;99.90;;;;;;4135060;28;20483;-71
2023/04/04 08:47:35;;;;;;;2.47;1.40;;;2.80;99.90;;;;;;4131981;28;20458;-71
2023/04/04 08:49:39;;;;;;;5.90;1.73;;;2.80;99.90;;;;;;4137547;28;20451;-71
2023/04/04 08:51:42;;;;;;;7.07;1.80;;;2.90;99.90;;;;;;4138337;28;20538;-71
2023/04/04 08:53:44;;;;;;;3.10;1.33;;;3.00;99.90;;;;;;4139430;28;20455;-71
2023/04/04 08:55:47;;;;;;;3.17;1.20;;;3.00;99.90;;;;;;4139597;28;20494;-70
2023/04/04 08:57:49;;;;;;;2.77;1.40;;;3.00;99.90;;;;;;4138141;28;20462;-72
2023/04/04 08:59:51;;;;;;;4.27;1.60;;;3.10;99.90;;;;;;4142002;28;21002;-71
2023/04/04 09:02:04;;;;;;;1.93;1.23;;;3.20;99.90;;;;;;4143500;28;20478;-71
2023/04/04 09:04:09;;;;;;;4.73;1.47;;;3.30;99.90;;;;;;4135046;28;20452;-70
2023/04/04 09:06:11;;;;;;;3.17;1.23;;;3.40;99.90;;;;;;4144337;28;20557;-70
2023/04/04 09:08:14;;;;;;;4.03;1.50;;;3.50;99.90;;;;;;4123937;28;20460;-71
2023/04/04 09:10:16;;;;;;;4.33;1.53;;;3.60;99.90;;;;;;4143160;28;20565;-71
2023/04/04 09:12:18;;;;;;;5.83;1.60;;;3.70;99.90;;;;;;4144047;28;20451;-70
2023/04/04 09:14:21;;;;;;;5.67;1.77;;;3.80;99.90;;;;;;4144929;28;20522;-72
2023/04/04 09:16:23;;;;;;;3.83;1.60;;;3.90;99.90;;;;;;4135702;28;20918;-71
2023/04/04 09:18:25;;;;;;;6.53;1.77;;;4.00;99.90;;;;;;4139395;28;21048;-71
2023/04/04 09:20:36;;;;;;;5.17;1.70;;;4.10;99.90;;;;;;4141021;28;20470;-72
2023/04/04 09:22:45;;;;;;;4.17;1.27;;;4.20;99.90;;;;;;4136159;28;20480;-72
2023/04/04 09:24:47;;;;;;;3.80;1.60;;;4.30;99.90;;;;;;4133371;28;20508;-72
2023/04/04 09:26:50;;;;;;;6.90;1.90;;;4.30;99.90;;;;;;4138028;28;21047;-72
2023/04/04 09:28:53;;;;;;;3.97;1.80;;;4.40;99.90;;;;;;4137737;28;20450;-72
2023/04/04 09:30:55;;;;;;;6.77;2.10;;;4.40;99.90;;;;;;4134289;28;20462;-72
2023/04/04 09:33:00;;;;;;;6.77;2.50;;;4.50;99.90;;;;;;4134665;28;20460;-72
2023/04/04 09:35:02;;;;;;;5.93;2.30;;;4.50;99.90;;;;;;4137768;28;20488;-72
2023/04/04 09:37:06;;;;;;;6.67;2.40;;;4.60;99.90;;;;;;4139717;28;20481;-71
2023/04/04 09:39:08;;;;;;;5.80;1.83;;;4.60;99.90;;;;;;4138050;28;20870;-72
2023/04/04 09:41:10;;;;;;;6.50;1.57;;;4.70;99.90;;;;;;4139110;28;20468;-72
2023/04/04 09:43:13;;;;;;;3.37;1.30;;;4.70;99.90;;;;;;4138126;28;20448;-72
2023/04/04 09:45:16;;;;;;;2.60;1.10;;;4.70;99.90;;;;;;4137630;28;21037;-72
2023/04/04 09:47:24;;;;;;;2.17;0.83;;;4.80;99.90;;;;;;4137169;28;20946;-72
2023/04/04 09:49:26;;;;;;;2.73;1.10;;;4.80;99.90;;;;;;4137120;28;20451;-72
2023/04/04 09:51:34;;;;;;;3.67;1.23;;;5.00;99.90;;;;;;4140096;28;20543;-72
2023/04/04 09:53:40;;;;;;;3.47;1.30;;;5.00;99.90;;;;;;4138847;28;20453;-72
2023/04/04 09:55:42;;;;;;;2.30;1.13;;;5.10;99.90;;;;;;4141328;28;20913;-72
2023/04/04 09:57:46;;;;;;;6.33;1.30;;;5.10;99.90;;;;;;4139066;28;20980;-72
2023/04/04 09:59:49;;;;;;;3.37;1.33;;;5.20;99.90;;;;;;4140482;28;20465;-72
2023/04/04 10:01:52;;;;;;;2.80;1.40;;;5.20;99.90;;;;;;4136283;28;20448;-72
2023/04/04 10:03:55;;;;;;;4.63;1.67;;;5.30;99.90;;;;;;4138368;28;20458;-72
2023/04/04 10:05:59;;;;;;;3.90;1.70;;;5.30;99.90;;;;;;4134396;28;20995;-71
2023/04/04 10:08:14;;;;;;;3.80;1.40;;;5.40;99.90;;;;;;4137716;28;20493;-72
2023/04/04 10:10:18;;;;;;;2.90;1.30;;;5.60;99.90;;;;;;4136848;28;20696;-72
2023/04/04 10:12:22;;;;;;;3.10;1.00;;;5.60;99.90;;;;;;4138412;28;20470;-72
2023/04/04 10:14:34;;;;;;;2.03;1.00;;;5.70;99.90;;;;;;4121530;28;20510;-72
2023/04/04 10:16:37;;;;;;;2.67;1.13;;;5.80;99.90;;;;;;4138580;28;20467;-73
2023/04/04 10:18:39;;;;;;;2.77;1.10;;;5.80;99.90;;;;;;4138859;28;20464;-72
2023/04/04 10:20:42;;;;;;;4.23;1.30;;;5.80;99.90;;;;;;4137419;28;20533;-72
2023/04/04 10:22:44;;;;;;;1.93;1.10;;;5.90;99.90;;;;;;4137785;28;21039;-71
2023/04/04 10:24:46;;;;;;;2.70;1.20;;;5.90;99.90;;;;;;4141761;28;20468;-71
2023/04/04 10:26:52;;;;;;;2.33;1.30;;;5.90;99.90;;;;;;4143993;28;20462;-71
2023/04/04 10:28:55;;;;;;;4.13;1.13;;;5.90;99.90;;;;;;4138733;28;20453;-71
2023/04/04 10:31:05;;;;;;;3.83;1.20;;;5.90;99.90;;;;;;4145086;28;20458;-72
2023/04/04 10:33:11;;;;;;;3.87;1.20;;;5.90;99.90;;;;;;4130140;28;20565;-71
2023/04/04 10:35:14;;;;;;;3.07;1.10;;;5.90;99.90;;;;;;4144870;28;21104;-72
2023/04/04 10:37:25;;;;;;;2.97;1.40;;;6.00;99.90;;;;;;4145877;28;21256;-71
2023/04/04 10:39:33;;;;;;;2.33;1.13;;;6.10;99.90;;;;;;4122704;28;20474;-71
2023/04/04 10:41:36;;;;;;;3.53;1.30;;;6.20;99.90;;;;;;4159801;28;20515;-72
2023/04/04 10:43:41;;;;;;;2.57;1.13;;;6.30;99.90;;;;;;4141539;28;21069;-72
2023/04/04 10:45:45;;;;;;;2.87;1.10;;;6.30;99.90;;;;;;4134930;28;20493;-72
2023/04/04 10:47:47;;;;;;;3.27;1.13;;;6.30;99.90;;;;;;4137806;28;20452;-72
2023/04/04 10:49:50;;;;;;;4.20;1.20;;;6.30;99.90;;;;;;4137728;28;20567;-73